sensor_id;sensor_type;location;lat;lon;timestamp;P1;durP1;ratioP1;P2;durP2;ratioP2
78856;SDS011;68207;50.078;19.936;2023-04-03T00:00:30;3.40;;;2.70;;
78856;SDS011;68207;50.078;19.936;2023-04-03T00:02:56;4.00;;;2.80;;
78856;SDS011;68207;50.078;19.936;2023-04-03T00:05:22;3.20;;;2.90;;
78856;SDS011;68207;50.078;19.936;2023-04-03T00:07:47;4.10;;;3.30;;
78856;SDS011;68207;50.078;19.936;2023-04-03T00:10:14;4.10;;;3.00;;
78856;SDS011;68207;50.078;19.936;2023-04-03T00:12:40;6.20;;;3.00;;
78856;SDS011;68207;50.078;19.936;2023-04-03T00:15:06;5.00;;;3.30;;
78856;SDS011;68207;50.078;19.936;2023-04-03T00:17:32;3.70;;;3.20;;
78856;SDS011;68207;50.078;19.936;2023-04-03T00:19:57;4.40;;;3.20;;
78856;SDS011;68207;50.078;19.936;2023-04-03T00:22:23;4.00;;;3.00;;
78856;SDS011;68207;50.078;19.936;2023-04-03T00:24:48;4.60;;;3.50;;
78856;SDS011;68207;50.078;19.936;2023-04-03T00:27:14;4.50;;;3.60;;
78856;SDS011;68207;50.078;19.936;2023-04-03T00:29:40;5.30;;;4.00;;
78856;SDS011;68207;50.078;19.936;2023-04-03T00:32:06;4.40;;;3.60;;
78856;SDS011;68207;50.078;19.936;2023-04-03T00:34:31;5.60;;;4.00;;
78856;SDS011;68207;50.078;19.936;2023-04-03T00:36:57;5.10;;;3.70;;
78856;SDS011;68207;50.078;19.936;2023-04-03T00:39:22;4.40;;;3.40;;
78856;SDS011;68207;50.078;19.936;2023-04-03T00:41:48;4.00;;;3.40;;
78856;SDS011;68207;50.078;19.936;2023-04-03T00:44:20;5.20;;;3.50;;
78856;SDS011;68207;50.078;19.936;2023-04-03T00:46:47;4.10;;;3.20;;
78856;SDS011;68207;50.078;19.936;2023-04-03T00:49:13;5.10;;;3.70;;
78856;SDS011;68207;50.078;19.936;2023-04-03T00:51:38;4.10;;;3.60;;
78856;SDS011;68207;50.078;19.936;2023-04-03T00:54:05;3.80;;;2.80;;
78856;SDS011;68207;50.078;19.936;2023-04-03T00:56:33;3.70;;;3.10;;
78856;SDS011;68207;50.078;19.936;2023-04-03T01:01:37;4.60;;;3.40;;
78856;SDS011;68207;50.078;19.936;2023-04-03T01:04:03;3.60;;;2.80;;
78856;SDS011;68207;50.078;19.936;2023-04-03T01:06:32;4.60;;;3.60;;
78856;SDS011;68207;50.078;19.936;2023-04-03T01:09:00;4.20;;;3.30;;
78856;SDS011;68207;50.078;19.936;2023-04-03T01:11:26;4.20;;;3.20;;
78856;SDS011;68207;50.078;19.936;2023-04-03T01:13:52;4.40;;;3.50;;
78856;SDS011;68207;50.078;19.936;2023-04-03T01:16:17;4.50;;;3.40;;
78856;SDS011;68207;50.078;19.936;2023-04-03T01:18:43;4.10;;;3.10;;
78856;SDS011;68207;50.078;19.936;2023-04-03T01:26:38;4.60;;;3.20;;
78856;SDS011;68207;50.078;19.936;2023-04-03T01:29:04;4.30;;;3.20;;
78856;SDS011;68207;50.078;19.936;2023-04-03T01:31:50;4.40;;;3.20;;
78856;SDS011;68207;50.078;19.936;2023-04-03T01:34:20;3.80;;;2.90;;
78856;SDS011;68207;50.078;19.936;2023-04-03T01:36:46;4.30;;;2.80;;
78856;SDS011;68207;50.078;19.936;2023-04-03T01:39:11;4.20;;;2.90;;
78856;SDS011;68207;50.078;19.936;2023-04-03T01:41:37;3.30;;;2.60;;
78856;SDS011;68207;50.078;19.936;2023-04-03T01:44:03;4.20;;;2.70;;
78856;SDS011;68207;50.078;19.936;2023-04-03T01:46:28;5.20;;;3.70;;
78856;SDS011;68207;50.078;19.936;2023-04-03T01:48:54;4.80;;;3.50;;
78856;SDS011;68207;50.078;19.936;2023-04-03T01:51:20;4.20;;;3.00;;
78856;SDS011;68207;50.078;19.936;2023-04-03T01:53:45;3.60;;;3.30;;
78856;SDS011;68207;50.078;19.936;2023-04-03T01:56:10;4.20;;;3.30;;
78856;SDS011;68207;50.078;19.936;2023-04-03T01:58:36;5.40;;;3.50;;
78856;SDS011;68207;50.078;19.936;2023-04-03T02:01:01;3.90;;;3.00;;
78856;SDS011;68207;50.078;19.936;2023-04-03T02:03:27;3.30;;;2.70;;
78856;SDS011;68207;50.078;19.936;2023-04-03T02:05:52;6.00;;;3.80;;
78856;SDS011;68207;50.078;19.936;2023-04-03T02:08:18;4.20;;;3.60;;
78856;SDS011;68207;50.078;19.936;2023-04-03T02:10:44;4.60;;;2.80;;
78856;SDS011;68207;50.078;19.936;2023-04-03T02:13:12;4.00;;;2.70;;
78856;SDS011;68207;50.078;19.936;2023-04-03T02:15:38;4.70;;;3.00;;
78856;SDS011;68207;50.078;19.936;2023-04-03T02:18:04;4.70;;;3.10;;
78856;SDS011;68207;50.078;19.936;2023-04-03T02:20:30;3.20;;;2.50;;
78856;SDS011;68207;50.078;19.936;2023-04-03T02:22:55;4.40;;;3.10;;
78856;SDS011;68207;50.078;19.936;2023-04-03T02:25:21;5.60;;;3.10;;
78856;SDS011;68207;50.078;19.936;2023-04-03T02:27:46;3.60;;;2.70;;
78856;SDS011;68207;50.078;19.936;2023-04-03T02:30:12;3.60;;;2.40;;
78856;SDS011;68207;50.078;19.936;2023-04-03T02:32:39;4.20;;;2.70;;
78856;SDS011;68207;50.078;19.936;2023-04-03T02:35:05;5.80;;;3.10;;
78856;SDS011;68207;50.078;19.936;2023-04-03T02:37:32;3.60;;;2.60;;
78856;SDS011;68207;50.078;19.936;2023-04-03T02:39:57;3.90;;;2.90;;
78856;SDS011;68207;50.078;19.936;2023-04-03T02:42:23;3.80;;;2.70;;
78856;SDS011;68207;50.078;19.936;2023-04-03T02:44:48;4.00;;;3.00;;
78856;SDS011;68207;50.078;19.936;2023-04-03T02:47:14;4.40;;;2.70;;
78856;SDS011;68207;50.078;19.936;2023-04-03T02:49:39;3.30;;;2.40;;
78856;SDS011;68207;50.078;19.936;2023-04-03T02:52:04;4.00;;;3.00;;
78856;SDS011;68207;50.078;19.936;2023-04-03T02:54:30;3.50;;;2.60;;
78856;SDS011;68207;50.078;19.936;2023-04-03T02:56:56;3.70;;;2.60;;
78856;SDS011;68207;50.078;19.936;2023-04-03T03:01:48;2.90;;;2.40;;
78856;SDS011;68207;50.078;19.936;2023-04-03T03:04:13;4.50;;;2.60;;
78856;SDS011;68207;50.078;19.936;2023-04-03T03:06:38;4.60;;;2.60;;
78856;SDS011;68207;50.078;19.936;2023-04-03T03:09:05;3.30;;;2.50;;
78856;SDS011;68207;50.078;19.936;2023-04-03T03:11:30;2.90;;;2.20;;
78856;SDS011;68207;50.078;19.936;2023-04-03T03:13:56;3.00;;;2.20;;
78856;SDS011;68207;50.078;19.936;2023-04-03T03:16:22;4.00;;;2.60;;
78856;SDS011;68207;50.078;19.936;2023-04-03T03:18:47;4.10;;;2.60;;
78856;SDS011;68207;50.078;19.936;2023-04-03T03:21:13;3.50;;;2.30;;
78856;SDS011;68207;50.078;19.936;2023-04-03T03:23:38;3.80;;;2.40;;
78856;SDS011;68207;50.078;19.936;2023-04-03T03:26:05;3.10;;;2.40;;
78856;SDS011;68207;50.078;19.936;2023-04-03T03:28:33;3.20;;;2.20;;
78856;SDS011;68207;50.078;19.936;2023-04-03T03:31:00;3.00;;;2.50;;
78856;SDS011;68207;50.078;19.936;2023-04-03T03:36:11;3.50;;;2.40;;
78856;SDS011;68207;50.078;19.936;2023-04-03T03:38:36;3.30;;;2.40;;
78856;SDS011;68207;50.078;19.936;2023-04-03T03:41:02;3.50;;;2.50;;
78856;SDS011;68207;50.078;19.936;2023-04-03T03:43:28;3.50;;;2.30;;
78856;SDS011;68207;50.078;19.936;2023-04-03T03:45:53;4.60;;;2.90;;
78856;SDS011;68207;50.078;19.936;2023-04-03T03:48:20;4.00;;;2.50;;
78856;SDS011;68207;50.078;19.936;2023-04-03T03:50:45;3.20;;;2.20;;
78856;SDS011;68207;50.078;19.936;2023-04-03T03:53:11;4.30;;;3.10;;
78856;SDS011;68207;50.078;19.936;2023-04-03T03:55:36;6.00;;;2.20;;
78856;SDS011;68207;50.078;19.936;2023-04-03T03:58:02;3.30;;;2.30;;
78856;SDS011;68207;50.078;19.936;2023-04-03T04:00:28;3.00;;;2.20;;
78856;SDS011;68207;50.078;19.936;2023-04-03T04:02:54;4.20;;;2.40;;
78856;SDS011;68207;50.078;19.936;2023-04-03T04:05:19;4.10;;;2.60;;
78856;SDS011;68207;50.078;19.936;2023-04-03T04:07:45;3.20;;;2.30;;
78856;SDS011;68207;50.078;19.936;2023-04-03T04:10:16;4.50;;;2.70;;
78856;SDS011;68207;50.078;19.936;2023-04-03T04:12:41;3.50;;;2.20;;
78856;SDS011;68207;50.078;19.936;2023-04-03T04:15:07;3.30;;;2.20;;
78856;SDS011;68207;50.078;19.936;2023-04-03T04:17:33;4.10;;;2.80;;
78856;SDS011;68207;50.078;19.936;2023-04-03T04:22:25;4.90;;;2.80;;
78856;SDS011;68207;50.078;19.936;2023-04-03T04:24:50;3.20;;;2.50;;
78856;SDS011;68207;50.078;19.936;2023-04-03T04:27:15;4.70;;;3.00;;
78856;SDS011;68207;50.078;19.936;2023-04-03T04:29:41;4.00;;;2.90;;
78856;SDS011;68207;50.078;19.936;2023-04-03T04:32:06;3.40;;;2.50;;
78856;SDS011;68207;50.078;19.936;2023-04-03T04:34:33;3.30;;;2.40;;
78856;SDS011;68207;50.078;19.936;2023-04-03T04:36:59;3.60;;;2.70;;
78856;SDS011;68207;50.078;19.936;2023-04-03T04:39:24;5.00;;;2.90;;
78856;SDS011;68207;50.078;19.936;2023-04-03T04:41:50;4.60;;;2.70;;
78856;SDS011;68207;50.078;19.936;2023-04-03T04:44:16;3.70;;;2.30;;
78856;SDS011;68207;50.078;19.936;2023-04-03T04:46:41;4.30;;;2.70;;
78856;SDS011;68207;50.078;19.936;2023-04-03T04:49:07;4.30;;;2.80;;
78856;SDS011;68207;50.078;19.936;2023-04-03T04:51:32;4.40;;;2.90;;
78856;SDS011;68207;50.078;19.936;2023-04-03T04:53:57;4.90;;;2.90;;
78856;SDS011;68207;50.078;19.936;2023-04-03T04:56:23;5.20;;;3.20;;
78856;SDS011;68207;50.078;19.936;2023-04-03T04:58:48;7.00;;;3.10;;
78856;SDS011;68207;50.078;19.936;2023-04-03T05:01:13;4.20;;;2.70;;
78856;SDS011;68207;50.078;19.936;2023-04-03T05:03:41;4.80;;;3.10;;
78856;SDS011;68207;50.078;19.936;2023-04-03T05:06:06;3.70;;;2.80;;
78856;SDS011;68207;50.078;19.936;2023-04-03T05:08:32;3.80;;;2.40;;
78856;SDS011;68207;50.078;19.936;2023-04-03T05:10:57;4.50;;;3.00;;
78856;SDS011;68207;50.078;19.936;2023-04-03T05:13:23;3.80;;;2.60;;
78856;SDS011;68207;50.078;19.936;2023-04-03T05:15:48;3.90;;;2.80;;
78856;SDS011;68207;50.078;19.936;2023-04-03T05:18:14;3.80;;;2.90;;
78856;SDS011;68207;50.078;19.936;2023-04-03T05:20:39;4.70;;;3.10;;
78856;SDS011;68207;50.078;19.936;2023-04-03T05:23:05;3.90;;;3.00;;
78856;SDS011;68207;50.078;19.936;2023-04-03T05:25:30;4.90;;;3.20;;
78856;SDS011;68207;50.078;19.936;2023-04-03T05:27:56;4.20;;;3.00;;
78856;SDS011;68207;50.078;19.936;2023-04-03T05:30:21;5.50;;;4.00;;
78856;SDS011;68207;50.078;19.936;2023-04-03T05:32:47;5.40;;;3.60;;
78856;SDS011;68207;50.078;19.936;2023-04-03T05:35:12;6.00;;;3.70;;
78856;SDS011;68207;50.078;19.936;2023-04-03T05:37:38;4.80;;;3.50;;
78856;SDS011;68207;50.078;19.936;2023-04-03T05:40:04;5.40;;;3.40;;
78856;SDS011;68207;50.078;19.936;2023-04-03T05:42:30;4.30;;;3.00;;
78856;SDS011;68207;50.078;19.936;2023-04-03T05:44:56;4.70;;;2.80;;
78856;SDS011;68207;50.078;19.936;2023-04-03T05:47:22;3.50;;;2.60;;
78856;SDS011;68207;50.078;19.936;2023-04-03T05:49:47;4.10;;;3.00;;
78856;SDS011;68207;50.078;19.936;2023-04-03T05:52:26;4.50;;;2.90;;
78856;SDS011;68207;50.078;19.936;2023-04-03T05:54:54;4.80;;;3.50;;
78856;SDS011;68207;50.078;19.936;2023-04-03T05:57:20;6.40;;;3.90;;
78856;SDS011;68207;50.078;19.936;2023-04-03T05:59:46;5.20;;;3.50;;
78856;SDS011;68207;50.078;19.936;2023-04-03T06:02:14;5.70;;;3.30;;
78856;SDS011;68207;50.078;19.936;2023-04-03T06:04:41;4.40;;;2.90;;
78856;SDS011;68207;50.078;19.936;2023-04-03T06:07:07;5.40;;;3.40;;
78856;SDS011;68207;50.078;19.936;2023-04-03T06:09:37;5.40;;;3.50;;
78856;SDS011;68207;50.078;19.936;2023-04-03T06:12:02;4.30;;;3.00;;
78856;SDS011;68207;50.078;19.936;2023-04-03T06:14:28;5.30;;;3.00;;
78856;SDS011;68207;50.078;19.936;2023-04-03T06:16:53;3.50;;;2.70;;
78856;SDS011;68207;50.078;19.936;2023-04-03T06:19:19;5.00;;;3.00;;
78856;SDS011;68207;50.078;19.936;2023-04-03T06:21:45;5.80;;;3.00;;
78856;SDS011;68207;50.078;19.936;2023-04-03T06:24:12;7.30;;;3.30;;
78856;SDS011;68207;50.078;19.936;2023-04-03T06:26:40;4.10;;;2.70;;
78856;SDS011;68207;50.078;19.936;2023-04-03T06:29:06;4.10;;;2.80;;
78856;SDS011;68207;50.078;19.936;2023-04-03T06:31:32;4.40;;;2.90;;
78856;SDS011;68207;50.078;19.936;2023-04-03T06:33:57;3.80;;;2.50;;
78856;SDS011;68207;50.078;19.936;2023-04-03T06:36:23;4.00;;;2.30;;
78856;SDS011;68207;50.078;19.936;2023-04-03T06:38:48;4.20;;;2.20;;
78856;SDS011;68207;50.078;19.936;2023-04-03T06:41:13;4.20;;;2.10;;
78856;SDS011;68207;50.078;19.936;2023-04-03T06:43:39;4.70;;;2.20;;
78856;SDS011;68207;50.078;19.936;2023-04-03T06:46:05;3.30;;;1.70;;
78856;SDS011;68207;50.078;19.936;2023-04-03T06:48:31;2.70;;;1.70;;
78856;SDS011;68207;50.078;19.936;2023-04-03T06:50:56;4.40;;;2.20;;
78856;SDS011;68207;50.078;19.936;2023-04-03T06:53:22;3.20;;;1.90;;
78856;SDS011;68207;50.078;19.936;2023-04-03T06:55:48;4.20;;;2.30;;
78856;SDS011;68207;50.078;19.936;2023-04-03T06:58:14;4.40;;;2.20;;
78856;SDS011;68207;50.078;19.936;2023-04-03T07:00:45;5.00;;;2.80;;
78856;SDS011;68207;50.078;19.936;2023-04-03T07:03:12;3.40;;;1.90;;
78856;SDS011;68207;50.078;19.936;2023-04-03T07:05:37;5.80;;;2.80;;
78856;SDS011;68207;50.078;19.936;2023-04-03T07:08:03;4.10;;;2.50;;
78856;SDS011;68207;50.078;19.936;2023-04-03T07:10:28;4.90;;;2.40;;
78856;SDS011;68207;50.078;19.936;2023-04-03T07:12:54;3.60;;;2.10;;
78856;SDS011;68207;50.078;19.936;2023-04-03T07:15:19;4.90;;;2.50;;
78856;SDS011;68207;50.078;19.936;2023-04-03T07:17:47;4.00;;;2.30;;
78856;SDS011;68207;50.078;19.936;2023-04-03T07:20:12;4.40;;;2.10;;
78856;SDS011;68207;50.078;19.936;2023-04-03T07:22:38;4.80;;;2.30;;
78856;SDS011;68207;50.078;19.936;2023-04-03T07:25:03;3.70;;;2.00;;
78856;SDS011;68207;50.078;19.936;2023-04-03T07:27:31;3.20;;;1.90;;
78856;SDS011;68207;50.078;19.936;2023-04-03T07:29:56;4.80;;;2.50;;
78856;SDS011;68207;50.078;19.936;2023-04-03T07:32:22;4.20;;;2.10;;
78856;SDS011;68207;50.078;19.936;2023-04-03T07:34:47;5.20;;;1.80;;
78856;SDS011;68207;50.078;19.936;2023-04-03T07:37:13;3.20;;;1.70;;
78856;SDS011;68207;50.078;19.936;2023-04-03T07:39:39;4.20;;;2.20;;
78856;SDS011;68207;50.078;19.936;2023-04-03T07:42:08;3.50;;;1.90;;
78856;SDS011;68207;50.078;19.936;2023-04-03T07:44:34;3.90;;;1.80;;
78856;SDS011;68207;50.078;19.936;2023-04-03T07:47:00;4.60;;;1.90;;
78856;SDS011;68207;50.078;19.936;2023-04-03T07:49:25;3.40;;;1.80;;
78856;SDS011;68207;50.078;19.936;2023-04-03T07:51:51;3.60;;;2.00;;
78856;SDS011;68207;50.078;19.936;2023-04-03T07:54:18;3.60;;;1.90;;
78856;SDS011;68207;50.078;19.936;2023-04-03T07:56:46;4.90;;;2.40;;
78856;SDS011;68207;50.078;19.936;2023-04-03T07:59:11;5.90;;;2.40;;
78856;SDS011;68207;50.078;19.936;2023-04-03T08:01:37;6.90;;;2.60;;
78856;SDS011;68207;50.078;19.936;2023-04-03T08:04:02;5.40;;;2.30;;
78856;SDS011;68207;50.078;19.936;2023-04-03T08:06:28;5.10;;;2.20;;
78856;SDS011;68207;50.078;19.936;2023-04-03T08:08:58;4.20;;;2.00;;
78856;SDS011;68207;50.078;19.936;2023-04-03T08:11:24;3.60;;;2.00;;
78856;SDS011;68207;50.078;19.936;2023-04-03T08:13:51;4.20;;;2.10;;
78856;SDS011;68207;50.078;19.936;2023-04-03T08:16:17;2.80;;;1.90;;
78856;SDS011;68207;50.078;19.936;2023-04-03T08:18:47;3.50;;;2.70;;
78856;SDS011;68207;50.078;19.936;2023-04-03T08:21:13;4.60;;;2.40;;
78856;SDS011;68207;50.078;19.936;2023-04-03T08:23:39;5.60;;;2.70;;
78856;SDS011;68207;50.078;19.936;2023-04-03T08:26:12;5.20;;;2.00;;
78856;SDS011;68207;50.078;19.936;2023-04-03T08:29:02;3.30;;;2.20;;
78856;SDS011;68207;50.078;19.936;2023-04-03T08:31:28;3.10;;;2.10;;
78856;SDS011;68207;50.078;19.936;2023-04-03T08:33:54;4.30;;;2.10;;
78856;SDS011;68207;50.078;19.936;2023-04-03T08:36:26;3.30;;;2.00;;
78856;SDS011;68207;50.078;19.936;2023-04-03T08:38:53;3.80;;;2.00;;
78856;SDS011;68207;50.078;19.936;2023-04-03T08:46:25;4.00;;;1.80;;
78856;SDS011;68207;50.078;19.936;2023-04-03T08:49:00;2.60;;;1.90;;
78856;SDS011;68207;50.078;19.936;2023-04-03T08:51:26;4.30;;;1.80;;
78856;SDS011;68207;50.078;19.936;2023-04-03T08:54:04;7.10;;;2.30;;
78856;SDS011;68207;50.078;19.936;2023-04-03T08:56:37;2.80;;;1.80;;
78856;SDS011;68207;50.078;19.936;2023-04-03T08:59:04;3.70;;;1.80;;
78856;SDS011;68207;50.078;19.936;2023-04-03T09:01:39;4.40;;;2.50;;
78856;SDS011;68207;50.078;19.936;2023-04-03T09:04:10;3.70;;;2.00;;
78856;SDS011;68207;50.078;19.936;2023-04-03T09:06:38;3.50;;;2.30;;
78856;SDS011;68207;50.078;19.936;2023-04-03T09:09:15;2.90;;;1.90;;
78856;SDS011;68207;50.078;19.936;2023-04-03T09:14:49;3.00;;;1.70;;
78856;SDS011;68207;50.078;19.936;2023-04-03T09:20:39;4.30;;;2.40;;
78856;SDS011;68207;50.078;19.936;2023-04-03T09:23:19;4.50;;;2.30;;
78856;SDS011;68207;50.078;19.936;2023-04-03T09:25:53;3.80;;;2.20;;
78856;SDS011;68207;50.078;19.936;2023-04-03T09:28:26;4.30;;;2.20;;
78856;SDS011;68207;50.078;19.936;2023-04-03T09:30:52;4.40;;;2.30;;
78856;SDS011;68207;50.078;19.936;2023-04-03T09:33:18;3.50;;;2.00;;
78856;SDS011;68207;50.078;19.936;2023-04-03T09:35:46;4.80;;;2.00;;
78856;SDS011;68207;50.078;19.936;2023-04-03T09:40:39;3.30;;;2.00;;
78856;SDS011;68207;50.078;19.936;2023-04-03T09:45:41;4.40;;;2.50;;
78856;SDS011;68207;50.078;19.936;2023-04-03T09:48:12;4.20;;;2.10;;
78856;SDS011;68207;50.078;19.936;2023-04-03T09:55:52;5.10;;;2.50;;
78856;SDS011;68207;50.078;19.936;2023-04-03T09:58:28;3.90;;;2.30;;
78856;SDS011;68207;50.078;19.936;2023-04-03T10:00:59;4.00;;;2.00;;
78856;SDS011;68207;50.078;19.936;2023-04-03T10:05:54;3.20;;;2.10;;
78856;SDS011;68207;50.078;19.936;2023-04-03T10:08:24;2.90;;;1.90;;
78856;SDS011;68207;50.078;19.936;2023-04-03T10:11:06;4.70;;;2.10;;
78856;SDS011;68207;50.078;19.936;2023-04-03T10:13:32;3.30;;;2.00;;
78856;SDS011;68207;50.078;19.936;2023-04-03T10:16:08;4.60;;;2.00;;
78856;SDS011;68207;50.078;19.936;2023-04-03T10:21:12;3.70;;;2.10;;
78856;SDS011;68207;50.078;19.936;2023-04-03T10:23:56;3.60;;;2.00;;
78856;SDS011;68207;50.078;19.936;2023-04-03T10:26:49;5.20;;;2.40;;
78856;SDS011;68207;50.078;19.936;2023-04-03T10:38:02;3.90;;;2.00;;
78856;SDS011;68207;50.078;19.936;2023-04-03T10:40:38;3.40;;;2.00;;
78856;SDS011;68207;50.078;19.936;2023-04-03T10:46:00;3.50;;;1.80;;
78856;SDS011;68207;50.078;19.936;2023-04-03T10:48:33;5.10;;;1.90;;
78856;SDS011;68207;50.078;19.936;2023-04-03T10:51:27;5.70;;;2.20;;
78856;SDS011;68207;50.078;19.936;2023-04-03T10:56:41;4.00;;;2.50;;
78856;SDS011;68207;50.078;19.936;2023-04-03T11:01:59;3.80;;;2.50;;
78856;SDS011;68207;50.078;19.936;2023-04-03T11:04:29;3.00;;;1.90;;
78856;SDS011;68207;50.078;19.936;2023-04-03T11:07:00;5.00;;;2.30;;
78856;SDS011;68207;50.078;19.936;2023-04-03T11:09:36;3.40;;;2.20;;
78856;SDS011;68207;50.078;19.936;2023-04-03T11:12:11;4.50;;;2.30;;
78856;SDS011;68207;50.078;19.936;2023-04-03T11:14:42;5.30;;;2.40;;
78856;SDS011;68207;50.078;19.936;2023-04-03T11:17:23;3.70;;;2.10;;
78856;SDS011;68207;50.078;19.936;2023-04-03T11:22:43;3.60;;;2.20;;
78856;SDS011;68207;50.078;19.936;2023-04-03T11:25:20;3.10;;;2.10;;
78856;SDS011;68207;50.078;19.936;2023-04-03T11:27:58;6.30;;;3.10;;
78856;SDS011;68207;50.078;19.936;2023-04-03T11:31:02;4.10;;;2.10;;
78856;SDS011;68207;50.078;19.936;2023-04-03T11:33:49;3.50;;;2.20;;
78856;SDS011;68207;50.078;19.936;2023-04-03T11:38:57;4.40;;;2.30;;
78856;SDS011;68207;50.078;19.936;2023-04-03T11:41:27;4.00;;;1.90;;
78856;SDS011;68207;50.078;19.936;2023-04-03T11:43:59;3.50;;;1.90;;
78856;SDS011;68207;50.078;19.936;2023-04-03T12:05:57;3.50;;;2.20;;
78856;SDS011;68207;50.078;19.936;2023-04-03T12:35:29;4.50;;;2.00;;
78856;SDS011;68207;50.078;19.936;2023-04-03T12:41:10;3.50;;;2.20;;
78856;SDS011;68207;50.078;19.936;2023-04-03T12:46:23;5.40;;;2.30;;
78856;SDS011;68207;50.078;19.936;2023-04-03T12:48:55;3.00;;;1.90;;
78856;SDS011;68207;50.078;19.936;2023-04-03T12:54:12;3.80;;;1.60;;
78856;SDS011;68207;50.078;19.936;2023-04-03T12:56:44;3.50;;;2.10;;
78856;SDS011;68207;50.078;19.936;2023-04-03T13:02:00;3.80;;;2.10;;
78856;SDS011;68207;50.078;19.936;2023-04-03T13:04:26;5.10;;;2.10;;
78856;SDS011;68207;50.078;19.936;2023-04-03T13:06:53;4.00;;;2.20;;
78856;SDS011;68207;50.078;19.936;2023-04-03T13:11:57;5.20;;;2.30;;
78856;SDS011;68207;50.078;19.936;2023-04-03T13:14:26;5.50;;;2.20;;
78856;SDS011;68207;50.078;19.936;2023-04-03T13:16:57;4.00;;;2.10;;
78856;SDS011;68207;50.078;19.936;2023-04-03T13:19:35;3.70;;;2.10;;
78856;SDS011;68207;50.078;19.936;2023-04-03T13:22:02;3.00;;;1.90;;
78856;SDS011;68207;50.078;19.936;2023-04-03T13:24:31;4.90;;;2.30;;
78856;SDS011;68207;50.078;19.936;2023-04-03T13:27:00;5.10;;;2.10;;
78856;SDS011;68207;50.078;19.936;2023-04-03T13:29:27;4.70;;;2.10;;
78856;SDS011;68207;50.078;19.936;2023-04-03T13:31:55;3.40;;;1.80;;
78856;SDS011;68207;50.078;19.936;2023-04-03T13:34:22;3.00;;;2.00;;
78856;SDS011;68207;50.078;19.936;2023-04-03T13:41:42;3.20;;;2.00;;
78856;SDS011;68207;50.078;19.936;2023-04-03T13:46:50;5.40;;;2.30;;
78856;SDS011;68207;50.078;19.936;2023-04-03T13:49:20;3.70;;;2.00;;
78856;SDS011;68207;50.078;19.936;2023-04-03T13:51:54;5.10;;;1.90;;
78856;SDS011;68207;50.078;19.936;2023-04-03T13:54:22;4.20;;;2.50;;
78856;SDS011;68207;50.078;19.936;2023-04-03T13:56:54;3.70;;;2.00;;
78856;SDS011;68207;50.078;19.936;2023-04-03T13:59:28;4.60;;;2.60;;
78856;SDS011;68207;50.078;19.936;2023-04-03T14:04:28;3.40;;;2.00;;
78856;SDS011;68207;50.078;19.936;2023-04-03T14:06:55;4.00;;;2.20;;
78856;SDS011;68207;50.078;19.936;2023-04-03T14:09:21;2.70;;;1.90;;
78856;SDS011;68207;50.078;19.936;2023-04-03T14:11:52;3.90;;;2.00;;
78856;SDS011;68207;50.078;19.936;2023-04-03T14:16:50;3.70;;;2.20;;
78856;SDS011;68207;50.078;19.936;2023-04-03T14:19:39;3.00;;;2.00;;
78856;SDS011;68207;50.078;19.936;2023-04-03T14:22:21;3.40;;;2.00;;
78856;SDS011;68207;50.078;19.936;2023-04-03T14:24:49;6.30;;;1.90;;
78856;SDS011;68207;50.078;19.936;2023-04-03T14:27:20;4.20;;;1.70;;
78856;SDS011;68207;50.078;19.936;2023-04-03T14:29:49;2.90;;;2.30;;
78856;SDS011;68207;50.078;19.936;2023-04-03T14:32:16;4.70;;;1.90;;
78856;SDS011;68207;50.078;19.936;2023-04-03T14:34:43;4.80;;;2.60;;
78856;SDS011;68207;50.078;19.936;2023-04-03T14:39:39;3.20;;;1.90;;
78856;SDS011;68207;50.078;19.936;2023-04-03T14:42:05;3.70;;;2.50;;
78856;SDS011;68207;50.078;19.936;2023-04-03T14:44:31;3.60;;;2.20;;
78856;SDS011;68207;50.078;19.936;2023-04-03T14:46:56;3.40;;;2.30;;
78856;SDS011;68207;50.078;19.936;2023-04-03T14:49:24;4.50;;;2.00;;
78856;SDS011;68207;50.078;19.936;2023-04-03T14:51:53;4.10;;;2.30;;
78856;SDS011;68207;50.078;19.936;2023-04-03T14:54:19;3.30;;;2.00;;
78856;SDS011;68207;50.078;19.936;2023-04-03T14:56:50;2.50;;;1.70;;
78856;SDS011;68207;50.078;19.936;2023-04-03T14:59:17;3.40;;;1.90;;
78856;SDS011;68207;50.078;19.936;2023-04-03T15:01:45;3.60;;;2.00;;
78856;SDS011;68207;50.078;19.936;2023-04-03T15:04:14;2.50;;;1.90;;
78856;SDS011;68207;50.078;19.936;2023-04-03T15:06:42;2.10;;;1.60;;
78856;SDS011;68207;50.078;19.936;2023-04-03T15:09:24;5.00;;;1.90;;
78856;SDS011;68207;50.078;19.936;2023-04-03T15:11:51;2.70;;;1.90;;
78856;SDS011;68207;50.078;19.936;2023-04-03T15:14:18;2.60;;;1.70;;
78856;SDS011;68207;50.078;19.936;2023-04-03T15:16:43;3.60;;;2.30;;
78856;SDS011;68207;50.078;19.936;2023-04-03T15:19:09;5.60;;;2.00;;
78856;SDS011;68207;50.078;19.936;2023-04-03T15:21:36;3.60;;;1.90;;
78856;SDS011;68207;50.078;19.936;2023-04-03T15:24:01;3.10;;;1.80;;
78856;SDS011;68207;50.078;19.936;2023-04-03T15:26:27;6.50;;;2.40;;
78856;SDS011;68207;50.078;19.936;2023-04-03T15:28:53;4.90;;;2.40;;
78856;SDS011;68207;50.078;19.936;2023-04-03T15:31:18;5.00;;;2.50;;
78856;SDS011;68207;50.078;19.936;2023-04-03T15:33:43;4.60;;;2.20;;
78856;SDS011;68207;50.078;19.936;2023-04-03T15:36:09;3.80;;;2.00;;
78856;SDS011;68207;50.078;19.936;2023-04-03T15:38:34;3.10;;;1.80;;
78856;SDS011;68207;50.078;19.936;2023-04-03T15:41:00;4.30;;;2.30;;
78856;SDS011;68207;50.078;19.936;2023-04-03T15:43:25;2.90;;;1.90;;
78856;SDS011;68207;50.078;19.936;2023-04-03T15:45:51;3.30;;;2.10;;
78856;SDS011;68207;50.078;19.936;2023-04-03T15:48:17;5.70;;;2.20;;
78856;SDS011;68207;50.078;19.936;2023-04-03T15:50:43;3.00;;;1.80;;
78856;SDS011;68207;50.078;19.936;2023-04-03T15:53:08;5.80;;;2.00;;
78856;SDS011;68207;50.078;19.936;2023-04-03T15:55:35;4.20;;;2.20;;
78856;SDS011;68207;50.078;19.936;2023-04-03T15:58:01;3.70;;;1.70;;
78856;SDS011;68207;50.078;19.936;2023-04-03T16:00:27;3.60;;;1.90;;
78856;SDS011;68207;50.078;19.936;2023-04-03T16:05:51;3.50;;;1.80;;
78856;SDS011;68207;50.078;19.936;2023-04-03T16:08:17;3.50;;;1.80;;
78856;SDS011;68207;50.078;19.936;2023-04-03T16:10:43;2.20;;;1.70;;
78856;SDS011;68207;50.078;19.936;2023-04-03T16:13:10;3.30;;;1.70;;
78856;SDS011;68207;50.078;19.936;2023-04-03T16:15:36;3.10;;;2.30;;
78856;SDS011;68207;50.078;19.936;2023-04-03T16:18:02;4.20;;;2.30;;
78856;SDS011;68207;50.078;19.936;2023-04-03T16:20:28;2.90;;;2.00;;
78856;SDS011;68207;50.078;19.936;2023-04-03T16:22:55;3.10;;;1.90;;
78856;SDS011;68207;50.078;19.936;2023-04-03T16:25:22;5.00;;;2.20;;
78856;SDS011;68207;50.078;19.936;2023-04-03T16:27:48;4.50;;;1.90;;
78856;SDS011;68207;50.078;19.936;2023-04-03T16:30:13;2.70;;;1.80;;
78856;SDS011;68207;50.078;19.936;2023-04-03T16:32:39;4.00;;;2.20;;
78856;SDS011;68207;50.078;19.936;2023-04-03T16:35:05;3.50;;;2.10;;
78856;SDS011;68207;50.078;19.936;2023-04-03T16:37:31;3.50;;;1.90;;
78856;SDS011;68207;50.078;19.936;2023-04-03T16:39:56;4.50;;;2.70;;
78856;SDS011;68207;50.078;19.936;2023-04-03T16:42:23;4.60;;;2.30;;
78856;SDS011;68207;50.078;19.936;2023-04-03T16:44:49;4.60;;;2.50;;
78856;SDS011;68207;50.078;19.936;2023-04-03T16:47:14;3.20;;;2.00;;
78856;SDS011;68207;50.078;19.936;2023-04-03T16:49:44;5.40;;;2.30;;
78856;SDS011;68207;50.078;19.936;2023-04-03T16:52:10;3.50;;;2.40;;
78856;SDS011;68207;50.078;19.936;2023-04-03T16:54:35;4.20;;;2.60;;
78856;SDS011;68207;50.078;19.936;2023-04-03T16:57:01;4.20;;;2.40;;
78856;SDS011;68207;50.078;19.936;2023-04-03T16:59:26;5.60;;;3.50;;